Time;durP1;ratioP1;P1;durP2;ratioP2;P2;SDS_P1;SDS_P2;PMS_P1;PMS_P2;Temp;Humidity;BMP_temperature;BMP_pressure;BME280_temperature;BME280_humidity;BME280_pressure;Samples;Min_cycle;Max_cycle;Signal;HPM_P1;HPM_P2
2021/08/30 00:02:23;;;;;;;1.90;0.90;;;15.90;99.90;;;;;;5051570;28;20047;-54
2021/08/30 00:05:27;;;;;;;4.43;1.00;;;16.00;99.90;;;;;;5051419;28;20036;-52
2021/08/30 00:08:32;;;;;;;3.05;1.00;;;16.10;99.90;;;;;;5051330;28;20048;-52
2021/08/30 00:11:37;;;;;;;1.60;1.00;;;16.10;99.90;;;;;;5050855;28;20410;-54
2021/08/30 00:14:41;;;;;;;1.77;0.82;;;16.20;99.90;;;;;;5051416;28;20427;-52
2021/08/30 00:17:46;;;;;;;3.85;1.15;;;16.20;99.90;;;;;;5051356;28;20047;-53
2021/08/30 00:20:51;;;;;;;1.35;1.00;;;16.10;99.90;;;;;;5050701;28;20060;-52
2021/08/30 00:23:56;;;;;;;2.67;1.08;;;16.10;99.90;;;;;;5051120;28;20044;-56
2021/08/30 00:27:00;;;;;;;2.03;1.20;;;15.90;99.90;;;;;;5051116;28;20044;-53
2021/08/30 00:30:07;;;;;;;1.67;1.05;;;15.90;99.90;;;;;;5050524;28;20051;-52
2021/08/30 00:33:12;;;;;;;4.22;1.25;;;15.80;99.90;;;;;;5050936;28;20076;-52
2021/08/30 00:36:15;;;;;;;1.42;1.10;;;15.70;99.90;;;;;;5050788;28;20040;-56
2021/08/30 00:39:25;;;;;;;2.35;1.13;;;15.60;99.90;;;;;;5050548;28;20051;-52
2021/08/30 00:42:28;;;;;;;1.38;1.08;;;15.50;99.90;;;;;;5050595;28;20060;-52
2021/08/30 00:45:32;;;;;;;2.30;0.85;;;15.60;99.90;;;;;;5050771;28;20040;-53
2021/08/30 00:48:37;;;;;;;1.92;1.13;;;15.60;99.90;;;;;;5050394;28;20064;-53
2021/08/30 00:51:41;;;;;;;2.22;1.10;;;15.60;99.90;;;;;;5050117;28;20056;-57
2021/08/30 00:54:46;;;;;;;1.20;0.93;;;15.60;99.90;;;;;;5050797;28;20064;-52
2021/08/30 00:57:50;;;;;;;2.03;0.98;;;15.50;99.90;;;;;;5050644;28;20052;-52
2021/08/30 01:00:55;;;;;;;2.72;0.77;;;15.50;99.90;;;;;;5050104;28;20644;-56
2021/08/30 01:03:59;;;;;;;1.20;1.00;;;15.40;99.90;;;;;;5050533;28;20056;-54
2021/08/30 01:07:30;;;;;;;1.20;1.00;;;15.30;99.90;;;;;;5050203;28;20052;-52
2021/08/30 01:10:47;;;;;;;1.92;1.20;;;15.30;99.90;;;;;;5050304;28;20043;-52
2021/08/30 01:13:56;;;;;;;3.13;1.05;;;15.20;99.90;;;;;;5050228;28;20059;-57
2021/08/30 01:17:04;;;;;;;3.35;1.13;;;15.20;99.90;;;;;;5050094;28;20036;-53
2021/08/30 01:20:25;;;;;;;2.90;1.05;;;15.10;99.90;;;;;;5049709;28;20059;-53
2021/08/30 01:23:30;;;;;;;3.03;1.10;;;15.00;99.90;;;;;;5050091;28;20053;-53
2021/08/30 01:26:41;;;;;;;2.10;1.20;;;15.00;99.90;;;;;;5050120;28;20047;-52
2021/08/30 01:30:06;;;;;;;1.42;0.77;;;15.00;99.90;;;;;;5050202;28;20522;-54
2021/08/30 01:33:11;;;;;;;1.42;0.93;;;14.90;99.90;;;;;;5050047;28;20069;-55
2021/08/30 01:36:19;;;;;;;2.20;1.10;;;15.00;99.90;;;;;;5050278;28;20048;-52
2021/08/30 01:39:30;;;;;;;2.72;1.20;;;15.00;99.90;;;;;;5049702;28;20059;-54
2021/08/30 01:42:40;;;;;;;3.15;1.08;;;15.10;99.90;;;;;;5049365;28;20047;-53
2021/08/30 01:45:45;;;;;;;1.77;1.00;;;15.00;99.90;;;;;;5049691;28;20040;-55
2021/08/30 01:48:51;;;;;;;3.08;1.13;;;14.90;99.90;;;;;;5049444;28;20419;-54
2021/08/30 01:51:58;;;;;;;1.95;1.30;;;14.90;99.90;;;;;;5049211;28;20060;-54
2021/08/30 02:01:23;;;;;;;2.30;1.13;;;14.70;99.90;;;;;;5049205;28;20067;-51
2021/08/30 02:04:28;;;;;;;1.35;1.10;;;14.60;99.90;;;;;;5049404;28;20047;-51
2021/08/30 02:07:32;;;;;;;2.03;1.27;;;14.60;99.90;;;;;;5049400;28;20048;-52
2021/08/30 02:10:37;;;;;;;2.35;1.23;;;14.60;99.90;;;;;;5049465;28;20435;-55
2021/08/30 02:13:41;;;;;;;1.80;1.30;;;14.60;99.90;;;;;;5049598;28;20060;-53
2021/08/30 02:16:51;;;;;;;3.88;1.08;;;14.60;99.90;;;;;;5049566;28;20044;-55
2021/08/30 02:20:07;;;;;;;3.38;1.33;;;14.60;99.90;;;;;;5048846;28;20403;-52
2021/08/30 02:23:14;;;;;;;2.90;1.20;;;14.50;99.90;;;;;;5048078;28;20040;-53
2021/08/30 02:26:21;;;;;;;3.88;1.27;;;14.40;99.90;;;;;;5049478;28;20033;-52
2021/08/30 02:29:30;;;;;;;2.50;0.98;;;14.30;99.90;;;;;;5049279;28;20048;-53
2021/08/30 02:32:36;;;;;;;3.28;1.33;;;14.30;99.90;;;;;;5048777;28;20052;-52
2021/08/30 02:35:43;;;;;;;2.42;1.50;;;14.20;99.90;;;;;;5049462;28;20509;-51
2021/08/30 02:38:48;;;;;;;3.67;1.70;;;14.10;99.90;;;;;;5049115;28;20044;-56
2021/08/30 02:41:54;;;;;;;1.88;1.30;;;14.10;99.90;;;;;;5048761;28;20044;-53
2021/08/30 02:45:02;;;;;;;3.05;1.40;;;14.00;99.90;;;;;;5036687;28;20047;-53
2021/08/30 02:48:07;;;;;;;2.30;1.48;;;14.00;99.90;;;;;;5048889;28;20043;-52
2021/08/30 02:51:13;;;;;;;2.08;1.23;;;13.90;99.90;;;;;;5048723;28;20407;-54
2021/08/30 02:54:19;;;;;;;2.40;1.20;;;13.90;99.90;;;;;;5052676;28;20052;-52
2021/08/30 02:57:24;;;;;;;2.85;1.48;;;13.80;99.90;;;;;;5053097;28;20052;-52
2021/08/30 03:00:28;;;;;;;1.50;1.20;;;13.80;99.90;;;;;;5052568;28;20044;-54
2021/08/30 03:03:34;;;;;;;2.67;1.25;;;13.80;99.90;;;;;;5052649;28;20040;-52
2021/08/30 03:06:39;;;;;;;1.77;1.27;;;13.70;99.90;;;;;;5052533;28;20044;-51
2021/08/30 03:09:43;;;;;;;3.53;1.58;;;13.60;99.90;;;;;;5052822;28;20048;-51
2021/08/30 03:12:52;;;;;;;3.67;2.05;;;13.60;99.90;;;;;;5051791;28;20510;-53
2021/08/30 03:15:57;;;;;;;2.55;1.40;;;13.60;99.90;;;;;;5052443;28;20051;-53
2021/08/30 03:19:03;;;;;;;2.15;1.30;;;13.60;99.90;;;;;;5052393;28;20407;-53
2021/08/30 03:22:10;;;;;;;1.52;1.17;;;13.70;99.90;;;;;;5052132;28;20040;-54
2021/08/30 03:25:15;;;;;;;3.33;1.85;;;13.70;99.90;;;;;;5052722;28;20039;-53
2021/08/30 03:28:20;;;;;;;2.80;1.60;;;13.70;99.90;;;;;;5052054;28;20048;-53
2021/08/30 03:31:27;;;;;;;2.40;1.60;;;13.80;99.90;;;;;;5051906;28;20031;-52
2021/08/30 03:34:33;;;;;;;2.60;1.75;;;13.70;99.90;;;;;;5051932;28;20040;-53
2021/08/30 03:37:41;;;;;;;1.70;1.35;;;13.60;99.90;;;;;;5051931;28;20060;-53
2021/08/30 03:40:46;;;;;;;2.42;1.35;;;13.60;99.90;;;;;;5051895;28;20048;-54
2021/08/30 03:43:52;;;;;;;4.93;1.23;;;13.60;99.90;;;;;;5051776;28;20036;-56
2021/08/30 03:46:57;;;;;;;3.47;1.30;;;13.70;99.90;;;;;;5052007;28;20055;-52
2021/08/30 03:50:04;;;;;;;3.63;1.90;;;13.70;99.90;;;;;;5050984;28;20048;-55
2021/08/30 03:53:09;;;;;;;2.15;1.40;;;13.70;99.90;;;;;;5051202;28;20056;-52
2021/08/30 03:56:14;;;;;;;7.50;1.70;;;13.80;99.90;;;;;;5051904;28;20048;-52
2021/08/30 03:59:19;;;;;;;2.25;1.30;;;13.80;99.90;;;;;;5051814;28;20044;-57
2021/08/30 04:02:27;;;;;;;3.30;1.40;;;13.80;99.90;;;;;;5051526;28;20048;-52
2021/08/30 04:05:32;;;;;;;3.45;1.70;;;13.70;99.90;;;;;;5051605;28;20044;-52
2021/08/30 04:08:37;;;;;;;1.70;1.30;;;13.70;99.90;;;;;;5051457;28;20040;-55
2021/08/30 04:11:44;;;;;;;1.67;1.20;;;13.70;99.90;;;;;;5051279;28;20044;-51
2021/08/30 04:14:49;;;;;;;2.47;1.55;;;13.60;99.90;;;;;;5051044;28;20403;-58
2021/08/30 04:17:53;;;;;;;2.45;1.60;;;13.60;99.90;;;;;;5051373;28;20509;-52
2021/08/30 04:20:58;;;;;;;2.45;1.50;;;13.50;99.90;;;;;;5050910;28;20411;-52
2021/08/30 04:24:04;;;;;;;4.45;1.40;;;13.30;99.90;;;;;;5051012;28;20044;-53
2021/08/30 04:27:08;;;;;;;3.45;1.67;;;13.30;99.90;;;;;;5051247;28;20275;-55
2021/08/30 04:30:13;;;;;;;2.53;1.52;;;13.10;99.90;;;;;;5051192;28;20044;-53
2021/08/30 04:33:19;;;;;;;2.78;1.70;;;13.00;99.90;;;;;;5050869;28;20060;-52
2021/08/30 04:36:23;;;;;;;5.18;1.90;;;13.00;99.90;;;;;;5051092;28;20052;-54
2021/08/30 04:39:28;;;;;;;4.68;1.70;;;12.90;99.90;;;;;;5050840;28;20048;-51
2021/08/30 04:42:32;;;;;;;4.63;2.13;;;13.00;99.90;;;;;;5050712;28;20039;-52
2021/08/30 04:45:38;;;;;;;3.67;1.67;;;13.10;99.90;;;;;;5050480;28;20044;-54
2021/08/30 04:48:42;;;;;;;3.67;2.10;;;13.20;99.90;;;;;;5050770;28;20613;-52
2021/08/30 04:51:47;;;;;;;2.95;1.60;;;13.00;99.90;;;;;;5050631;28;20048;-52
2021/08/30 04:54:53;;;;;;;2.67;1.70;;;13.10;99.90;;;;;;5038101;28;20411;-57
2021/08/30 04:57:57;;;;;;;4.80;1.83;;;13.10;99.90;;;;;;5050675;28;20044;-52
2021/08/30 05:01:02;;;;;;;3.10;1.80;;;13.10;99.90;;;;;;5038156;28;20048;-52
2021/08/30 05:04:06;;;;;;;2.38;1.80;;;13.20;99.90;;;;;;5050580;28;20052;-52
2021/08/30 05:07:11;;;;;;;6.95;1.95;;;13.20;99.90;;;;;;5051178;28;20083;-56
2021/08/30 05:10:16;;;;;;;5.03;1.80;;;13.30;99.90;;;;;;5050739;28;20071;-53
2021/08/30 05:13:20;;;;;;;4.35;1.55;;;13.40;99.90;;;;;;5050797;28;20056;-52
2021/08/30 05:16:24;;;;;;;2.20;1.50;;;13.50;99.90;;;;;;5050146;28;20519;-52
2021/08/30 05:19:28;;;;;;;4.45;1.70;;;13.50;99.90;;;;;;5050510;28;20407;-57
2021/08/30 05:22:33;;;;;;;2.45;1.75;;;13.60;99.90;;;;;;5050304;28;20052;-55
2021/08/30 05:25:38;;;;;;;4.18;1.65;;;13.70;99.90;;;;;;5050144;28;20107;-56
2021/08/30 05:28:42;;;;;;;4.50;1.67;;;15.20;99.90;;;;;;5050373;28;20052;-53
2021/08/30 05:31:48;;;;;;;3.33;1.45;;;18.50;99.90;;;;;;5050090;28;20044;-53
2021/08/30 05:34:52;;;;;;;5.05;1.40;;;21.40;99.90;;;;;;5049983;28;20060;-50
2021/08/30 05:37:57;;;;;;;5.75;1.40;;;23.40;98.30;;;;;;5050315;28;20044;-52
2021/08/30 05:41:01;;;;;;;2.28;1.30;;;24.20;95.10;;;;;;5049835;28;20048;-54
2021/08/30 05:44:05;;;;;;;3.33;1.25;;;23.20;95.10;;;;;;5049741;28;20506;-56
2021/08/30 05:47:11;;;;;;;3.70;1.58;;;20.60;98.50;;;;;;5050073;28;20043;-52
2021/08/30 05:50:15;;;;;;;3.50;1.40;;;20.20;99.90;;;;;;5049807;28;20051;-50
2021/08/30 05:53:21;;;;;;;2.40;1.23;;;19.80;99.90;;;;;;5049888;28;20055;-50
2021/08/30 05:56:27;;;;;;;2.08;1.17;;;19.80;99.90;;;;;;5049801;28;20055;-58
2021/08/30 05:59:32;;;;;;;5.65;1.70;;;21.70;99.20;;;;;;5048550;28;20052;-52
2021/08/30 06:02:37;;;;;;;3.10;1.75;;;23.00;97.20;;;;;;5049288;28;20403;-51
2021/08/30 06:05:41;;;;;;;2.45;1.38;;;24.80;94.30;;;;;;5049404;28;20411;-50
2021/08/30 06:08:45;;;;;;;3.28;1.20;;;26.20;92.10;;;;;;5049567;28;20111;-52
2021/08/30 06:11:51;;;;;;;1.85;1.25;;;26.80;90.50;;;;;;5049227;28;20048;-50
2021/08/30 06:14:55;;;;;;;2.67;1.20;;;27.10;87.50;;;;;;5049472;28;20055;-52
2021/08/30 06:17:59;;;;;;;1.83;1.30;;;27.10;84.10;;;;;;5049266;28;20414;-52
2021/08/30 06:21:04;;;;;;;4.00;1.80;;;27.00;84.70;;;;;;5048199;28;20048;-53
2021/08/30 06:24:08;;;;;;;2.10;1.20;;;26.60;84.50;;;;;;5049244;28;20040;-56
2021/08/30 06:27:17;;;;;;;4.22;1.95;;;26.70;84.60;;;;;;5051268;28;20036;-53
2021/08/30 06:30:21;;;;;;;2.28;1.40;;;27.20;82.70;;;;;;5053082;28;20068;-52
2021/08/30 06:33:25;;;;;;;1.42;1.10;;;27.10;83.20;;;;;;5053271;28;20411;-52
2021/08/30 06:36:30;;;;;;;3.72;1.50;;;26.80;84.50;;;;;;5052896;28;20044;-50
2021/08/30 06:39:34;;;;;;;2.33;1.30;;;27.40;83.60;;;;;;5053428;28;20047;-50
2021/08/30 06:42:39;;;;;;;2.67;1.08;;;28.10;82.20;;;;;;5052733;28;20051;-53
2021/08/30 06:45:43;;;;;;;2.65;0.93;;;28.90;79.90;;;;;;5052836;28;20055;-51
2021/08/30 06:48:47;;;;;;;2.53;1.13;;;29.80;78.00;;;;;;5060706;28;20060;-52
2021/08/30 06:51:51;;;;;;;1.67;0.93;;;30.10;76.30;;;;;;5059438;28;20036;-52
2021/08/30 06:54:56;;;;;;;4.35;1.20;;;30.20;75.60;;;;;;5072144;28;20055;-51
2021/08/30 06:58:00;;;;;;;1.90;1.10;;;30.60;73.60;;;;;;5070015;28;20055;-50
2021/08/30 07:01:04;;;;;;;2.10;1.15;;;28.90;73.40;;;;;;5071807;28;20048;-54
2021/08/30 07:04:08;;;;;;;3.38;1.10;;;28.30;74.10;;;;;;5068667;28;20055;-53
2021/08/30 07:07:12;;;;;;;3.50;1.27;;;25.50;78.80;;;;;;5063168;28;20059;-51
2021/08/30 07:10:18;;;;;;;2.05;1.00;;;24.80;82.70;;;;;;5071068;28;20043;-50
2021/08/30 07:13:23;;;;;;;1.48;0.93;;;24.70;83.50;;;;;;5071634;28;20048;-51
2021/08/30 07:16:28;;;;;;;5.38;1.25;;;26.00;80.90;;;;;;5071159;28;20039;-51
2021/08/30 07:19:32;;;;;;;2.83;0.70;;;26.20;80.70;;;;;;5072696;28;20418;-51
2021/08/30 07:22:37;;;;;;;3.50;0.90;;;27.20;78.70;;;;;;5072115;28;20060;-53
2021/08/30 07:25:42;;;;;;;2.22;1.00;;;27.60;79.20;;;;;;5071792;28;20040;-51
2021/08/30 07:28:47;;;;;;;4.28;0.90;;;26.80;78.60;;;;;;5059711;28;20522;-50
2021/08/30 07:31:51;;;;;;;3.78;1.02;;;26.00;79.10;;;;;;5071711;28;20028;-54
2021/08/30 07:34:55;;;;;;;3.63;1.00;;;27.70;78.70;;;;;;5060697;28;20297;-50
2021/08/30 07:37:59;;;;;;;2.38;0.80;;;27.40;77.80;;;;;;5067053;28;20043;-53
2021/08/30 07:41:05;;;;;;;1.48;0.80;;;27.10;78.30;;;;;;5070427;28;20513;-50
2021/08/30 07:44:09;;;;;;;5.68;1.00;;;29.40;73.90;;;;;;5071512;28;20047;-52
2021/08/30 07:47:12;;;;;;;1.63;0.90;;;29.70;70.80;;;;;;5071368;28;20048;-51
2021/08/30 07:50:16;;;;;;;0.65;0.63;;;30.80;68.90;;;;;;5071645;28;20047;-51
2021/08/30 07:53:25;;;;;;;2.25;0.80;;;29.70;68.70;;;;;;5071511;28;20047;-52
2021/08/30 07:56:29;;;;;;;3.92;1.20;;;30.70;67.90;;;;;;5051589;28;20522;-53
2021/08/30 07:59:33;;;;;;;2.75;1.30;;;29.20;69.80;;;;;;5056443;28;20071;-53
2021/08/30 08:02:39;;;;;;;1.50;1.20;;;29.10;70.80;;;;;;5071636;28;20035;-55
2021/08/30 08:05:43;;;;;;;2.03;0.80;;;29.40;70.30;;;;;;5071476;28;20039;-55
2021/08/30 08:08:47;;;;;;;2.50;1.08;;;30.40;68.10;;;;;;5071841;28;20687;-51
2021/08/30 08:11:52;;;;;;;5.78;0.73;;;32.60;66.80;;;;;;5071367;28;20048;-52
2021/08/30 08:14:57;;;;;;;1.77;0.80;;;33.90;65.10;;;;;;5071202;28;20036;-51
2021/08/30 08:18:03;;;;;;;1.65;1.00;;;34.10;63.40;;;;;;5070905;28;20044;-51
2021/08/30 08:21:08;;;;;;;2.05;0.93;;;34.20;62.80;;;;;;5070872;28;20044;-53
2021/08/30 08:24:12;;;;;;;2.67;0.70;;;34.10;63.60;;;;;;5071303;28;20040;-51
2021/08/30 08:27:17;;;;;;;1.77;0.88;;;30.10;67.00;;;;;;5049907;28;20043;-53
2021/08/30 08:30:22;;;;;;;1.17;0.77;;;31.40;67.40;;;;;;5070524;28;20549;-52
2021/08/30 08:33:27;;;;;;;2.22;0.95;;;31.20;65.60;;;;;;5070572;28;20047;-54
2021/08/30 08:36:32;;;;;;;3.00;0.77;;;31.10;66.70;;;;;;5067281;28;20043;-51
2021/08/30 08:39:36;;;;;;;1.92;1.00;;;30.30;67.60;;;;;;5059260;28;20055;-51
2021/08/30 08:42:42;;;;;;;3.42;1.33;;;29.80;69.30;;;;;;5070382;28;20470;-51
2021/08/30 08:45:47;;;;;;;3.45;1.65;;;31.50;66.80;;;;;;5069734;28;20039;-59
2021/08/30 08:48:51;;;;;;;3.42;0.68;;;32.40;65.00;;;;;;5069877;28;20403;-54
2021/08/30 08:51:55;;;;;;;1.95;0.70;;;33.60;64.20;;;;;;5069931;28;20533;-55
2021/08/30 08:55:01;;;;;;;3.15;0.80;;;34.10;60.90;;;;;;5070593;28;20149;-51
2021/08/30 08:58:16;;;;;;;1.25;0.60;;;34.80;60.20;;;;;;5070348;28;20330;-51
2021/08/30 09:01:27;;;;;;;1.13;0.50;;;33.20;59.60;;;;;;5070301;28;20047;-51
2021/08/30 09:04:35;;;;;;;1.73;0.77;;;29.50;65.00;;;;;;5070533;28;20044;-51
2021/08/30 09:07:42;;;;;;;1.85;0.75;;;30.10;63.90;;;;;;5076356;28;20055;-56
2021/08/30 09:10:49;;;;;;;2.67;0.60;;;33.30;62.80;;;;;;5050549;28;20048;-55
2021/08/30 09:13:58;;;;;;;0.95;0.40;;;36.10;59.90;;;;;;5056866;28;20046;-54
2021/08/30 09:17:09;;;;;;;2.47;0.90;;;37.00;57.40;;;;;;5073767;28;20051;-55
2021/08/30 09:20:15;;;;;;;1.65;0.60;;;38.20;56.70;;;;;;5070575;28;20055;-56
2021/08/30 09:23:19;;;;;;;1.70;0.52;;;36.40;57.00;;;;;;5069514;28;20071;-53
2021/08/30 09:26:24;;;;;;;2.90;0.45;;;38.40;53.00;;;;;;5066396;28;20051;-52
2021/08/30 09:29:36;;;;;;;3.97;0.40;;;38.50;52.80;;;;;;5069690;28;20053;-54
2021/08/30 09:32:45;;;;;;;1.10;0.60;;;38.40;51.90;;;;;;5069806;28;20051;-56
2021/08/30 09:36:00;;;;;;;1.80;0.70;;;37.50;49.80;;;;;;5070773;28;20035;-55
2021/08/30 09:39:04;;;;;;;1.98;0.60;;;39.30;51.50;;;;;;5066557;28;20542;-52
2021/08/30 09:42:11;;;;;;;1.67;0.60;;;37.20;51.00;;;;;;5069641;28;20059;-56
2021/08/30 09:45:20;;;;;;;1.67;0.63;;;32.80;54.20;;;;;;5065190;28;20027;-50
2021/08/30 09:48:26;;;;;;;1.60;0.60;;;36.20;52.70;;;;;;5069022;28;20509;-54
2021/08/30 09:51:32;;;;;;;1.10;0.40;;;37.70;51.10;;;;;;5068251;28;20044;-55
2021/08/30 09:54:37;;;;;;;1.20;0.50;;;39.60;50.10;;;;;;5069253;28;20055;-53
2021/08/30 09:57:48;;;;;;;1.17;0.50;;;36.20;49.50;;;;;;5058735;28;20043;-55
2021/08/30 10:00:52;;;;;;;1.98;0.50;;;39.30;51.00;;;;;;5067909;28;20479;-53
2021/08/30 10:03:57;;;;;;;1.63;0.40;;;42.20;48.30;;;;;;5069080;28;20074;-53
2021/08/30 10:07:03;;;;;;;1.08;0.40;;;37.80;48.00;;;;;;5064894;28;20040;-55
2021/08/30 10:10:08;;;;;;;0.70;0.50;;;41.10;49.00;;;;;;5068748;28;20407;-52
2021/08/30 10:13:12;;;;;;;0.98;0.50;;;35.60;48.70;;;;;;5057020;28;20063;-53
2021/08/30 10:16:18;;;;;;;1.08;0.55;;;34.70;52.20;;;;;;5069621;28;20517;-53
2021/08/30 10:19:29;;;;;;;2.35;0.50;;;37.50;50.40;;;;;;5056322;28;20048;-58
2021/08/30 10:22:33;;;;;;;0.95;0.50;;;40.20;48.90;;;;;;5069124;28;20043;-56
2021/08/30 10:25:40;;;;;;;1.05;0.50;;;41.90;47.60;;;;;;5068912;28;20040;-57
2021/08/30 10:28:47;;;;;;;2.90;0.60;;;41.80;46.40;;;;;;5056222;28;20057;-54
2021/08/30 10:31:55;;;;;;;2.35;0.60;;;42.50;46.80;;;;;;5073849;28;20031;-57
2021/08/30 10:34:59;;;;;;;1.42;0.60;;;42.90;46.10;;;;;;5069335;28;20102;-53
2021/08/30 10:38:13;;;;;;;0.55;0.55;;;43.00;46.20;;;;;;5069037;28;20434;-55
2021/08/30 10:41:18;;;;;;;0.73;0.52;;;39.30;47.30;;;;;;5065238;28;20414;-55
2021/08/30 10:44:26;;;;;;;1.70;0.60;;;38.00;48.80;;;;;;5065578;28;20052;-52
2021/08/30 10:47:35;;;;;;;0.90;0.60;;;37.80;48.40;;;;;;5068935;28;20039;-56
2021/08/30 10:50:47;;;;;;;2.80;0.70;;;39.10;46.90;;;;;;5068428;28;20059;-58
2021/08/30 10:54:01;;;;;;;2.72;0.70;;;38.60;47.50;;;;;;5068125;28;20047;-50
2021/08/30 10:57:05;;;;;;;1.77;0.60;;;38.90;47.90;;;;;;5069396;28;20055;-52
2021/08/30 11:00:10;;;;;;;1.88;0.40;;;40.70;47.40;;;;;;5068488;28;20043;-52
2021/08/30 11:03:36;;;;;;;1.40;0.60;;;42.90;45.70;;;;;;5066615;28;20044;-52
2021/08/30 11:06:41;;;;;;;0.77;0.60;;;37.40;47.80;;;;;;5056812;28;20063;-52
2021/08/30 11:09:47;;;;;;;2.22;0.73;;;34.60;49.60;;;;;;5068944;28;20047;-52
2021/08/30 11:12:52;;;;;;;1.15;0.68;;;36.50;49.40;;;;;;5065996;28;20509;-52
2021/08/30 11:15:56;;;;;;;3.05;0.63;;;35.90;49.50;;;;;;5052287;28;20048;-57
2021/08/30 11:19:05;;;;;;;1.80;0.60;;;37.30;50.30;;;;;;5052178;28;20036;-52
2021/08/30 11:22:10;;;;;;;1.55;0.70;;;37.20;48.30;;;;;;5052081;28;20055;-56
2021/08/30 11:25:14;;;;;;;0.90;0.70;;;34.40;51.00;;;;;;5052426;28;20052;-53
2021/08/30 11:28:18;;;;;;;3.03;0.85;;;35.10;51.50;;;;;;5050984;28;20076;-56
2021/08/30 11:31:27;;;;;;;1.27;0.90;;;35.30;50.90;;;;;;5052067;28;20048;-54
2021/08/30 11:34:33;;;;;;;2.65;0.80;;;36.00;49.90;;;;;;5052155;28;20044;-52
2021/08/30 11:37:38;;;;;;;1.88;0.75;;;37.20;49.90;;;;;;5052183;28;20415;-52
2021/08/30 11:40:42;;;;;;;1.77;0.70;;;36.80;49.00;;;;;;5051730;28;20052;-55
2021/08/30 11:43:48;;;;;;;2.17;0.93;;;38.20;48.70;;;;;;5067009;28;20040;-54
2021/08/30 11:46:57;;;;;;;1.50;0.57;;;39.70;47.60;;;;;;5054766;28;20708;-53
2021/08/30 11:50:05;;;;;;;0.98;0.70;;;42.30;46.90;;;;;;5071600;28;20123;-55
2021/08/30 11:53:15;;;;;;;1.90;1.02;;;44.10;45.40;;;;;;5071458;28;20051;-55
2021/08/30 11:56:22;;;;;;;0.82;0.60;;;45.30;44.60;;;;;;5071069;28;20039;-55
2021/08/30 11:59:28;;;;;;;1.25;0.70;;;45.30;44.90;;;;;;5071386;28;20055;-54
2021/08/30 12:02:36;;;;;;;0.90;0.70;;;44.80;44.00;;;;;;5071537;28;20043;-57
2021/08/30 12:05:44;;;;;;;1.35;0.85;;;39.20;46.10;;;;;;5071668;28;20043;-53
2021/08/30 12:08:52;;;;;;;1.27;0.88;;;37.50;47.30;;;;;;5071210;28;20043;-58
2021/08/30 12:11:56;;;;;;;2.78;0.88;;;37.60;47.80;;;;;;5071364;28;20047;-51
2021/08/30 12:15:08;;;;;;;1.10;0.80;;;37.10;49.00;;;;;;5071482;28;20047;-54
2021/08/30 12:18:19;;;;;;;1.15;0.80;;;34.40;49.70;;;;;;5071396;28;20044;-52
2021/08/30 12:21:43;;;;;;;;;;;36.70;49.80;;;;;;5071471;28;20043;-52
2021/08/30 12:24:47;;;;;;;2.25;1.10;;;38.60;47.60;;;;;;5070919;28;19937;-55
2021/08/30 12:27:52;;;;;;;0.93;0.70;;;40.80;47.10;;;;;;5071209;28;20039;-52
2021/08/30 12:30:57;;;;;;;1.85;1.00;;;41.50;46.00;;;;;;5070601;28;20422;-51
2021/08/30 12:34:12;;;;;;;2.85;1.08;;;40.50;45.80;;;;;;5071265;28;20036;-52
2021/08/30 12:37:16;;;;;;;2.42;1.17;;;38.30;47.20;;;;;;5070896;28;20035;-54
2021/08/30 12:40:21;;;;;;;0.90;0.70;;;36.90;48.00;;;;;;5070464;28;20059;-51
2021/08/30 12:43:26;;;;;;;1.75;1.00;;;35.90;48.40;;;;;;5070764;28;20040;-55
2021/08/30 12:46:31;;;;;;;0.90;0.80;;;35.30;49.00;;;;;;5069070;28;20044;-54
2021/08/30 12:49:36;;;;;;;0.98;0.82;;;35.10;49.60;;;;;;5070262;28;20510;-52
2021/08/30 12:52:40;;;;;;;1.92;1.10;;;35.30;50.00;;;;;;5069263;28;20048;-52
2021/08/30 12:55:45;;;;;;;1.50;1.10;;;35.50;49.60;;;;;;5067076;28;20047;-54
2021/08/30 12:58:49;;;;;;;1.10;1.00;;;33.80;50.30;;;;;;5070700;28;20063;-55
2021/08/30 13:01:53;;;;;;;1.50;0.90;;;32.50;51.70;;;;;;5070217;28;20450;-55
2021/08/30 13:04:58;;;;;;;2.75;1.00;;;32.30;51.70;;;;;;5070876;28;20043;-55
2021/08/30 13:08:02;;;;;;;2.03;0.93;;;32.90;53.20;;;;;;5069564;28;20067;-52
2021/08/30 13:11:06;;;;;;;3.17;0.98;;;33.50;53.50;;;;;;5067507;28;20047;-53
2021/08/30 13:14:12;;;;;;;3.80;1.25;;;34.00;52.80;;;;;;5070780;28;20056;-53
2021/08/30 13:17:17;;;;;;;1.45;1.10;;;33.70;53.10;;;;;;5070228;28;20051;-52
2021/08/30 13:20:22;;;;;;;6.38;1.08;;;33.80;53.70;;;;;;5070240;28;20055;-56
2021/08/30 13:23:27;;;;;;;2.28;1.13;;;34.40;54.40;;;;;;5070881;28;20039;-52
2021/08/30 13:26:32;;;;;;;5.13;1.13;;;35.80;53.70;;;;;;5070978;28;20055;-55
2021/08/30 13:29:37;;;;;;;1.75;0.90;;;35.90;53.40;;;;;;5070517;28;20043;-52
2021/08/30 13:32:42;;;;;;;1.30;1.10;;;35.70;52.70;;;;;;5070014;28;20051;-53
2021/08/30 13:35:46;;;;;;;5.32;1.88;;;36.80;52.40;;;;;;5070016;28;20048;-58
2021/08/30 13:38:50;;;;;;;2.88;1.10;;;34.20;53.60;;;;;;5069451;28;20052;-52
2021/08/30 13:41:55;;;;;;;1.88;0.90;;;36.50;52.40;;;;;;5069635;28;20047;-52
2021/08/30 13:44:59;;;;;;;1.63;1.08;;;35.20;53.20;;;;;;5070178;28;20410;-54
2021/08/30 13:48:03;;;;;;;2.25;0.90;;;34.80;53.70;;;;;;5073837;28;20119;-53
2021/08/30 13:51:12;;;;;;;2.25;1.20;;;33.90;53.80;;;;;;5068039;28;20055;-52
2021/08/30 13:54:16;;;;;;;6.22;1.40;;;33.10;55.00;;;;;;5069156;28;20055;-52
2021/08/30 13:57:22;;;;;;;2.45;1.25;;;32.90;55.80;;;;;;5067783;28;20058;-55
2021/08/30 14:00:27;;;;;;;3.33;1.20;;;32.80;56.00;;;;;;5068815;28;20051;-55
2021/08/30 14:03:33;;;;;;;3.70;1.27;;;33.00;55.70;;;;;;5068554;28;20047;-52
2021/08/30 14:06:38;;;;;;;1.05;0.93;;;32.80;55.90;;;;;;5069568;28;20039;-56
2021/08/30 14:09:43;;;;;;;2.17;1.40;;;32.80;56.10;;;;;;5069502;28;20048;-54
2021/08/30 14:12:47;;;;;;;3.30;1.27;;;33.10;56.30;;;;;;5066276;28;20043;-52
2021/08/30 14:15:52;;;;;;;3.50;1.50;;;33.40;56.30;;;;;;5069457;28;20509;-54
2021/08/30 14:18:57;;;;;;;1.30;1.10;;;33.60;56.30;;;;;;5070387;28;20517;-55
2021/08/30 14:22:03;;;;;;;1.55;1.10;;;32.90;57.00;;;;;;5070282;28;20040;-58
2021/08/30 14:25:08;;;;;;;3.30;1.30;;;31.90;57.90;;;;;;5049938;28;20040;-53
2021/08/30 14:28:13;;;;;;;2.05;1.10;;;31.40;59.50;;;;;;5067470;28;20032;-52
2021/08/30 14:31:17;;;;;;;1.42;1.10;;;31.10;60.20;;;;;;5067149;28;20643;-52
2021/08/30 14:34:22;;;;;;;5.63;1.60;;;31.10;60.30;;;;;;5068009;28;20047;-54
2021/08/30 14:37:28;;;;;;;1.90;1.50;;;31.10;61.50;;;;;;5068818;28;20044;-51
2021/08/30 14:40:32;;;;;;;5.88;1.63;;;30.90;62.20;;;;;;5069019;28;20123;-52
2021/08/30 14:43:38;;;;;;;2.78;1.30;;;30.80;62.50;;;;;;5069205;28;20043;-56
2021/08/30 14:46:42;;;;;;;3.95;1.50;;;30.80;62.50;;;;;;5068932;28;20044;-57
2021/08/30 14:49:47;;;;;;;3.53;1.30;;;30.80;62.70;;;;;;5059394;28;20039;-52
2021/08/30 14:52:51;;;;;;;1.88;1.50;;;31.00;62.30;;;;;;5069397;28;20056;-54
2021/08/30 14:55:56;;;;;;;1.85;1.17;;;31.40;62.00;;;;;;5060391;28;20051;-53
2021/08/30 14:59:02;;;;;;;3.00;1.50;;;31.50;61.00;;;;;;5072512;28;20418;-55
2021/08/30 15:02:08;;;;;;;2.63;1.52;;;31.50;61.00;;;;;;5071225;28;20048;-55
2021/08/30 15:05:13;;;;;;;2.75;1.40;;;31.50;61.10;;;;;;5072758;28;20043;-52
2021/08/30 15:08:18;;;;;;;3.08;1.60;;;31.30;60.10;;;;;;5072540;28;20052;-54
2021/08/30 15:11:24;;;;;;;2.70;2.03;;;31.50;61.50;;;;;;5052021;28;20056;-52
2021/08/30 15:14:28;;;;;;;3.58;1.65;;;31.70;60.90;;;;;;5069112;28;20052;-52
2021/08/30 15:17:32;;;;;;;5.95;2.00;;;31.80;61.00;;;;;;5072356;28;20047;-52
2021/08/30 15:20:36;;;;;;;2.97;2.03;;;31.40;61.30;;;;;;5053541;28;20423;-51
2021/08/30 15:23:41;;;;;;;3.92;2.15;;;31.20;61.90;;;;;;5069341;28;20414;-54
2021/08/30 15:26:46;;;;;;;4.20;2.03;;;30.90;62.10;;;;;;5052557;28;20048;-54
2021/08/30 15:29:50;;;;;;;3.38;2.05;;;30.50;62.80;;;;;;5067836;28;20052;-54
2021/08/30 15:32:55;;;;;;;4.47;2.00;;;30.30;63.40;;;;;;5061847;28;20040;-49
2021/08/30 15:36:00;;;;;;;4.55;2.20;;;30.60;62.70;;;;;;5071755;28;20059;-53
2021/08/30 15:39:05;;;;;;;3.20;2.03;;;31.10;62.20;;;;;;5071623;28;20047;-52
2021/08/30 15:42:10;;;;;;;2.67;1.80;;;31.30;61.80;;;;;;5068915;28;20414;-55
2021/08/30 15:45:14;;;;;;;2.58;1.40;;;31.20;61.50;;;;;;5059172;28;20051;-53
2021/08/30 15:48:21;;;;;;;3.67;2.40;;;30.70;61.70;;;;;;5071478;28;20044;-52
2021/08/30 15:51:30;;;;;;;3.20;1.52;;;30.70;62.50;;;;;;5071540;28;20481;-56
2021/08/30 15:54:35;;;;;;;3.03;1.33;;;30.40;61.90;;;;;;5071555;28;20414;-52
2021/08/30 15:57:39;;;;;;;2.28;1.50;;;30.30;62.70;;;;;;5071581;28;20051;-54
2021/08/30 16:00:46;;;;;;;3.28;1.88;;;29.70;62.50;;;;;;5070347;28;20047;-54
2021/08/30 16:03:51;;;;;;;2.17;1.60;;;29.50;63.80;;;;;;5071085;28;20044;-53
2021/08/30 16:06:55;;;;;;;2.65;1.60;;;29.20;64.90;;;;;;5072775;28;20532;-56
2021/08/30 16:10:19;;;;;;;2.95;1.63;;;29.10;65.50;;;;;;5067686;28;20043;-52
2021/08/30 16:13:23;;;;;;;3.47;1.45;;;28.90;65.30;;;;;;5056837;28;20063;-51
2021/08/30 16:16:27;;;;;;;2.80;1.73;;;28.70;65.20;;;;;;5070565;28;20044;-52